Terminal Aerodrome Forecast
Issued by NWS

Home | Current Version | Previous Version | Text Only | Print | Product List | Glossary On
Versions: 1 2 3 4 5 6 7 8 9 10 11 12 13 14 15 16 17 18 19 20 21 22 23 24 25
000
FTUS45 KSLC 290539
TAF36U
TAF
K36U 290539Z 2906/3006 02012G17KT P6SM SCT040 BKN080
     FM290900 03010KT P6SM SCT050 BKN090
     FM291500 03007KT P6SM SCT080 SCT120
     FM291900 35009KT P6SM SCT070 SCT120
     FM300200 02013KT P6SM SCT040 SCT120=

USA.gov is the U.S. government's official web portal to all federal, state and local government web resources and services.